Home > Products > Valid Products > TAF

000
FTUS44 KOHX 270200 AAC
TAFBNA
TAF AMD
KBNA 270210Z 2702/2724 20003KT P6SM -RA BKN040 BKN070 OVC090
     FM270300 28007KT P6SM -RA OVC025
     FM270600 30008KT 4SM -SN OVC015
     FM270800 32008KT P6SM OVC015
     FM271500 33008KT P6SM BKN030
     FM271800 33010KT P6SM SCT030=



000
FTUS44 KOHX 270100 AAB
TAFCSV
TAF AMD
KCSV 270135Z 2702/2724 24007KT 6SM -SHRA OVC025
     FM270300 27004KT P6SM -RASN OVC025
     FM270600 29007KT 4SM -SN OVC010
     FM271200 31008KT P6SM OVC025
     FM271700 31010KT P6SM BKN025
     FM272000 31012KT P6SM SCT025=



000
FTUS44 KOHX 270100 AAB
TAFBNA
TAF AMD
KBNA 270135Z 2702/2724 20003KT P6SM -RA BKN030 OVC040
     FM270300 28007KT P6SM -RA OVC025
     FM270600 30008KT 4SM -SN OVC015
     FM270800 32008KT P6SM OVC015
     FM271500 33008KT P6SM BKN030
     FM271800 33010KT P6SM SCT030=



000
FTUS44 KOHX 270000 AAC
TAFCKV
TAF AMD
KCKV 270059Z 2701/2724 26003KT 6SM -RA BKN020 OVC028
     FM270200 27005KT P6SM -RA OVC025
     FM270500 30007KT 4SM -SN OVC015
     FM270700 32008KT P6SM OVC015
     FM271400 32009KT P6SM BKN030
     FM271700 31010KT P6SM SCT030=



000
FTUS44 KOHX 270000 AAB
TAFCKV
TAF AMD
KCKV 270057Z 2701/2724 26003KT 6SM -RA BKN020 OVC025
     FM270200 27005KT P6SM -RA OVC025
     FM270500 30007KT 4SM -SN OVC015
     FM270700 32008KT P6SM OVC015
     FM271400 32009KT P6SM BKN030
     FM271700 31010KT P6SM SCT030=



000
FTUS44 KOHX 262300 AAA
TAFBNA
TAF AMD
KBNA 262359Z 2700/2724 21012G20KT P6SM -RA OVC030
     FM270300 28007KT P6SM -RA OVC025
     FM270600 30008KT 4SM -SN OVC015
     FM270800 32008KT P6SM OVC015
     FM271500 33008KT P6SM BKN030
     FM271800 33010KT P6SM SCT030=



000
FTUS44 KOHX 262300 AAA
TAFCKV
TAF AMD
KCKV 262359Z 2700/2724 23004KT 5SM RA OVC018
     FM270200 27005KT P6SM -RA OVC025
     FM270500 30007KT 4SM -SN OVC015
     FM270700 32008KT P6SM OVC015
     FM271400 32009KT P6SM BKN030
     FM271700 31010KT P6SM SCT030=



000
FTUS44 KOHX 262300 AAA
TAFCKV
TAF AMD
KCKV 262353Z 2700/2724 21013G20KT P6SM -RA BKN024 OVC040
     FM270200 27005KT P6SM -RA OVC025
     FM270500 30007KT 4SM -SN OVC015
     FM270700 32008KT P6SM OVC015
     FM271400 32009KT P6SM BKN030
     FM271700 31010KT P6SM SCT030=



000
FTUS44 KOHX 262300 AAA
TAFBNA
TAF AMD
KBNA 262353Z 2700/2724 20006KT P6SM -RA BKN050 OVC080
     FM270300 28007KT P6SM -RA OVC025
     FM270600 30008KT 4SM -SN OVC015
     FM270800 32008KT P6SM OVC015
     FM271500 33008KT P6SM BKN030
     FM271800 33010KT P6SM SCT030=



000
FTUS44 KOHX 262300 RRA
TAFCKV
TAF
KCKV 262340Z 2700/2724 21013G20KT P6SM -RA BKN024 OVC040
     FM270200 27005KT P6SM -RA OVC025
     FM270500 30007KT 4SM -SN BR OVC015
     FM270700 32008KT P6SM OVC015
     FM271400 32009KT P6SM BKN030
     FM271700 31010KT P6SM SCT030=



000
FTUS44 KOHX 262300 AAA
TAFCSV
TAF AMD
KCSV 262340Z 2700/2724 24005KT P6SM BKN050
     FM270300 27004KT P6SM -RASN OVC025
     FM270600 29007KT 4SM -SN OVC010
     FM271200 31008KT P6SM OVC025
     FM271700 31010KT P6SM BKN025
     FM272000 31012KT P6SM SCT025=



000
FTUS44 KOHX 262300 RRA
TAFCSV
TAF
KCSV 262340Z 2700/2724 24005KT P6SM BKN050
     FM270300 27004KT P6SM -RASN OVC025
     FM270600 29007KT 4SM SN BR OVC010
     FM271200 31008KT P6SM OVC025
     FM271700 31010KT P6SM BKN025
     FM272000 31012KT P6SM SCT025=



000
FTUS44 KOHX 262300 RRA
TAFBNA
TAF
KBNA 262340Z 2700/2724 20006KT P6SM -RA BKN050 OVC080
     FM270300 28007KT P6SM -RA OVC025
     FM270600 30008KT 4SM -SN BR OVC015
     FM270800 32008KT P6SM OVC015
     FM271500 33008KT P6SM BKN030
     FM271800 33010KT P6SM SCT030=



000
FTUS44 KOHX 262300 AAA
TAFCKV
TAF AMD
KCKV 262311Z 2623/2718 21013G20KT P6SM -SHRA BKN024 OVC040
     FM270000 20006KT P6SM -RA OVC050
     FM270300 28007KT P6SM -RA OVC025
     FM270700 30008KT 4SM -SN BR OVC015
     FM270900 32008KT P6SM OVC015
     FM271600 33008KT P6SM BKN030=



000
FTUS44 KOHX 261700 RRA
TAFCKV
TAF
KCKV 261741Z 2618/2718 14004KT P6SM SCT120 BKN250
     FM270000 20006KT P6SM -RA OVC050
     FM270300 28007KT P6SM -RA OVC025
     FM270700 30008KT 4SM -SN BR OVC015
     FM270900 32008KT P6SM OVC015
     FM271600 33008KT P6SM BKN030=



000
FTUS44 KOHX 261700 RRA
TAFCSV
TAF
KCSV 261741Z 2618/2718 30005KT P6SM SKC
     FM262200 24005KT P6SM BKN050
     FM270300 27004KT P6SM -RA OVC050
     FM270600 29007KT 4SM -SN BR OVC015
     FM271200 31008KT P6SM OVC025=



000
FTUS44 KOHX 261700 RRA
TAFBNA
TAF
KBNA 261741Z 2618/2718 18005KT P6SM SCT250
     FM270000 20006KT P6SM -RA OVC050
     FM270300 28007KT P6SM -RA OVC025
     FM270700 30008KT 4SM -SN BR OVC015
     FM270900 32008KT P6SM OVC015
     FM271600 33008KT P6SM BKN030=



000
FTUS44 KOHX 261100
TAFBNA
TAF
KBNA 261138Z 2612/2712 29005KT P6SM SKC
     FM261600 18005KT P6SM SCT120 BKN250
     FM262300 20008KT P6SM -RA BKN050 BKN120
     FM270100 28006KT P6SM -RA OVC025
     FM270500 29009KT 5SM -RASN BR OVC015=



000
FTUS44 KOHX 261100
TAFCSV
TAF
KCSV 261138Z 2612/2712 00000KT P6SM SKC
     FM261800 23005KT P6SM SCT100 BKN200
     FM262200 25005KT P6SM BKN030 BKN100
     FM270100 26005KT P6SM -RA OVC030
     FM270600 27005KT 5SM -SN BR OVC015=



000
FTUS44 KOHX 261100
TAFCKV
TAF
KCKV 261138Z 2612/2712 34003KT P6SM SKC
     FM261500 17006KT P6SM SCT120 BKN250
     FM262100 19008KT P6SM -RA BKN050 BKN120
     FM270200 28006KT 4SM -RASN BR OVC025
     FM270600 30010KT P6SM OVC015=



000
FTUS44 KOHX 260500
TAFCSV
TAF
KCSV 260540Z 2606/2706 00000KT P6SM BKN080 OVC200
      TEMPO 2606/2610 -SHRASN
     FM261100 00000KT P6SM SCT200
     FM261800 23005KT P6SM SCT100 BKN200
     FM262200 20005KT P6SM -RA BKN030 BKN100
     FM270200 26005KT P6SM -RA OVC030=



000
FTUS44 KOHX 260500
TAFCKV
TAF
KCKV 260540Z 2606/2706 34003KT P6SM SKC
     FM261500 17006KT P6SM SCT120 BKN250
     FM261800 19008KT P6SM -RA BKN050 BKN120
     FM270000 28006KT P6SM OVC050=



000
FTUS44 KOHX 260500
TAFBNA
TAF
KBNA 260540Z 2606/2706 32005KT P6SM SKC
     FM261600 18005KT P6SM SCT120 BKN250
     FM262000 20008KT P6SM -RA BKN050 BKN120
     FM270100 28006KT P6SM -RA OVC050=



000
FTUS44 KOHX 252300 RRA
TAFCSV
TAF
KCSV 252340Z 2600/2624 29001KT P6SM OVC200
     FM260600 00000KT P6SM -SHRASN BKN080 OVC200
     FM261100 00000KT P6SM SCT200
     FM261800 23005KT P6SM SCT100 BKN200
     FM262200 20005KT P6SM -RA BKN030 BKN100=



000
FTUS44 KOHX 252300 RRA
TAFCKV
TAF
KCKV 252340Z 2600/2624 36005KT P6SM OVC250
     FM260700 00000KT P6SM SCT250
     FM261500 17006KT P6SM SCT120 BKN250
     FM261800 19008KT P6SM -RA BKN050 BKN120=



000
FTUS44 KOHX 252300 RRA
TAFBNA
TAF
KBNA 252340Z 2600/2624 34003KT P6SM BKN170 OVC250
     FM260900 00000KT P6SM SCT250
     FM261600 18005KT P6SM SCT120 BKN250
     FM262000 20008KT P6SM -RA BKN050 BKN120=



000
FTUS44 KOHX 251700
TAFCKV
TAF
KCKV 251736Z 2518/2618 31008KT P6SM SCT200
     FM252300 33002KT P6SM SCT200
     FM261600 17006KT P6SM BKN100=



000
FTUS44 KOHX 251700
TAFCSV
TAF
KCSV 251736Z 2518/2618 29009KT P6SM SKC
     FM252300 29002KT P6SM OVC150
     FM260700 29001KT P6SM BKN030
     FM261000 30003KT P6SM SCT040=



000
FTUS44 KOHX 251700
TAFBNA
TAF
KBNA 251736Z 2518/2618 31006KT P6SM FEW060 SCT120
     FM252300 34003KT P6SM SCT200=



000
FTUS44 KOHX 251600 AAA
TAFCKV
TAF AMD
KCKV 251609Z 2516/2612 30009KT P6SM SCT200
     FM252300 33003KT P6SM SCT200=



000
FTUS44 KOHX 251600 AAA
TAFCSV
TAF AMD
KCSV 251609Z 2516/2612 VRB04KT P6SM SKC
     FM251900 30006KT P6SM SCT040 OVC150
     FM260500 35002KT P6SM BKN020=



000
FTUS44 KOHX 251600 AAA
TAFBNA
TAF AMD
KBNA 251609Z 2516/2612 29005KT P6SM FEW050 SCT100
     FM251700 27006KT P6SM FEW050 SCT200
     FM252000 34003KT P6SM SCT040 SCT200=



000
FTUS44 KOHX 251100
TAFCSV
TAF
KCSV 251126Z 2512/2612 26003KT P6SM SKC
     FM251900 30006KT P6SM SCT040 OVC150
     FM260500 35002KT P6SM BKN020=



000
FTUS44 KOHX 251100
TAFCKV
TAF
KCKV 251126Z 2512/2612 30006KT P6SM SKC
     FM251600 30007KT P6SM SCT200
     FM252300 33003KT P6SM SCT200=



000
FTUS44 KOHX 251100
TAFBNA
TAF
KBNA 251126Z 2512/2612 18003KT P6SM SKC
     FM251700 27006KT P6SM FEW050 SCT200
     FM252000 34003KT P6SM SCT040 SCT200=



000
FTUS44 KOHX 250500
TAFCSV
TAF
KCSV 250532Z 2506/2606 26003KT P6SM SKC
     FM251300 31007KT P6SM FEW050
     FM252000 32005KT P6SM SCT040 BKN150
     FM260200 35002KT P6SM VCSH BKN040=



000
FTUS44 KOHX 250500
TAFCKV
TAF
KCKV 250532Z 2506/2606 27005KT P6SM SKC
     FM251300 31008KT P6SM FEW050
     FM252000 33004KT P6SM FEW040 SCT200=



000
FTUS44 KOHX 250500
TAFBNA
TAF
KBNA 250532Z 2506/2606 25006KT P6SM SKC
     FM251300 32007KT P6SM FEW050
     FM252000 34003KT P6SM SCT040 SCT200=



000
FTUS44 KOHX 242300 RRA
TAFCSV
TAF
KCSV 242345Z 2500/2524 26006KT P6SM SKC
     FM250200 26003KT P6SM SKC
     FM251300 31007KT P6SM FEW050=



000
FTUS44 KOHX 242300 RRA
TAFCKV
TAF
KCKV 242345Z 2500/2524 26012KT P6SM SKC
     FM250200 27005KT P6SM SKC
     FM251300 31008KT P6SM FEW050=



000
FTUS44 KOHX 242300 RRA
TAFBNA
TAF
KBNA 242345Z 2500/2524 25006KT P6SM SKC
     FM251300 32007KT P6SM FEW050=



000
FTUS44 KOHX 241700
TAFBNA
TAF
KBNA 241733Z 2418/2518 27012G20KT P6SM SCT035
      TEMPO 2418/2422 BKN035
     FM250000 24009KT P6SM FEW035
     FM251000 27003KT P6SM SKC
     FM251300 31006KT P6SM FEW050=



000
FTUS44 KOHX 241700
TAFCSV
TAF
KCSV 241733Z 2418/2518 25010G29KT P6SM BKN035
     FM250000 25006KT P6SM SCT035
     FM251300 31006KT P6SM FEW050=



000
FTUS44 KOHX 241700
TAFCKV
TAF
KCKV 241733Z 2418/2518 24013G22KT P6SM BKN030 OVC035
      TEMPO 2418/2422 SCT035
     FM250000 24009KT P6SM FEW035
     FM251000 27003KT P6SM SKC
     FM251300 31006KT P6SM FEW050=



000
FTUS44 KOHX 241300 AAA
TAFCKV
TAF AMD
KCKV 241327Z 2413/2512 25015G30KT P6SM VCSH BKN035 WS020/21040KT
      TEMPO 2413/2415 BKN025
     FM241500 25017G27KT P6SM OVC050
     FM242300 26010KT P6SM SCT100
     FM250300 24005KT P6SM SKC=



000
FTUS44 KOHX 241200 AAA
TAFBNA
TAF AMD
KBNA 241259Z 2413/2512 21016G26KT P6SM FEW040 SCT045 WS020/21040KT
      TEMPO 2413/2415 5SM -SHRA OVC035
     FM241600 24015G25KT P6SM OVC050
     FM242300 24009KT P6SM SCT100
     FM251000 27003KT P6SM SKC=



000
FTUS44 KOHX 241100 RRA
TAFCSV
TAF
KCSV 241141Z 2412/2512 18014G24KT P6SM VCSH FEW018 SCT024
      TEMPO 2412/2415 BKN025
     FM241500 23013G23KT P6SM OVC050
     FM250000 25006KT P6SM SCT100=



000
FTUS44 KOHX 241100 RRA
TAFCKV
TAF
KCKV 241141Z 2412/2512 22020G30KT P6SM VCSH FEW035 SCT050 BKN070
      WS020/21040KT
      TEMPO 2412/2414 BKN025
     FM241500 25017G27KT P6SM OVC050
     FM242300 26010KT P6SM SCT100
     FM250300 24005KT P6SM SKC=



000
FTUS44 KOHX 241100 RRA
TAFBNA
TAF
KBNA 241141Z 2412/2512 21013G23KT P6SM VCSH FEW025 SCT030 SCT035
      WS020/21040KT
     FM241600 24015G25KT P6SM OVC050
     FM242300 24009KT P6SM SCT100
     FM251000 27003KT P6SM SKC=



000
FTUS44 KOHX 240900 AAC
TAFBNA
TAF AMD
KBNA 240914Z 2409/2506 19019G30KT P6SM SCT028 BKN035
     FM241000 23017G27KT P6SM VCSH BKN015 BKN025
     FM241500 24016G26KT P6SM SCT015 BKN025
     FM241900 24013KT P6SM BKN035
     FM250000 24007KT P6SM SCT035=



000
FTUS44 KOHX 240900 AAB
TAFCKV
TAF AMD
KCKV 240914Z 2409/2506 20020G27KT P6SM VCSH FEW027 BKN035
     FM241400 25016G26KT P6SM SCT015 BKN025
     FM241900 25014KT P6SM BKN035
     FM250000 25006KT P6SM SCT035=



000
FTUS44 KOHX 240700 AAB
TAFBNA
TAF AMD
KBNA 240702Z 2407/2506 19013G22KT P6SM FEW028
      TEMPO 2407/2410 BKN025
     FM241000 23017G27KT P6SM VCSH BKN015 BKN025
     FM241500 24016G26KT P6SM SCT015 BKN025
     FM241900 24013KT P6SM BKN035
     FM250000 24007KT P6SM SCT035=



000
FTUS44 KOHX 240500 AAA
TAFBNA
TAF AMD
KBNA 240559Z 2406/2506 19014G24KT P6SM SCT015 BKN050
      TEMPO 2406/2410 BKN025
     FM241000 23017G27KT P6SM VCSH BKN015 BKN025
     FM241500 24016G26KT P6SM SCT015 BKN025
     FM241900 24013KT P6SM BKN035
     FM250000 24007KT P6SM SCT035=



000
FTUS44 KOHX 240500 AAA
TAFCSV
TAF AMD
KCSV 240530Z 2406/2506 19012G20KT P6SM SCT020 BKN050
      TEMPO 2406/2410 BKN020
     FM241000 21014G24KT P6SM VCSH BKN020
     FM241500 24013G22KT P6SM SCT015 BKN025
     FM242000 25012KT P6SM BKN035
     FM250000 25005KT P6SM SCT030=



000
FTUS44 KOHX 240500 AAA
TAFCKV
TAF AMD
KCKV 240528Z 2405/2506 20013G24KT P6SM SCT015 BKN040
      TEMPO 2406/2409 BKN015
     FM240900 23018G28KT P6SM VCSH BKN015
     FM241400 25016G26KT P6SM SCT015 BKN025
     FM241900 25014KT P6SM BKN035
     FM250000 25006KT P6SM SCT035=



000
FTUS44 KOHX 240500
TAFBNA
TAF
KBNA 240522Z 2406/2506 19014G24KT P6SM SCT015 BKN050
     FM241000 23017G27KT P6SM VCSH BKN015 BKN025
     FM241500 24016G26KT P6SM SCT015 BKN025
     FM241900 24013KT P6SM BKN035
     FM250000 24007KT P6SM SCT035=



000
FTUS44 KOHX 240500
TAFCSV
TAF
KCSV 240522Z 2406/2506 19012G20KT P6SM SCT012 BKN020
     FM241100 21014G24KT P6SM VCSH BKN020
     FM241500 24013G22KT P6SM SCT015 BKN025
     FM242000 25012KT P6SM BKN035
     FM250000 25005KT P6SM SCT030=



000
FTUS44 KOHX 240500
TAFCKV
TAF
KCKV 240522Z 2406/2506 20013G24KT P6SM BKN015
     FM240900 23018G28KT P6SM VCSH BKN015
     FM241400 25016G26KT P6SM SCT015 BKN025
     FM241900 25014KT P6SM BKN035
     FM250000 25006KT P6SM SCT035=



000
FTUS44 KOHX 240300 AAC
TAFCSV
TAF AMD
KCSV 240357Z 2404/2424 19016G27KT P6SM VCSH BKN006 BKN012
      TEMPO 2404/2406 5SM SHRA SCT006 BKN025
     FM240600 19013G22KT P6SM BKN015
     FM241100 21014G24KT P6SM VCSH BKN015
      TEMPO 2411/2415 -SHRA
     FM241500 24013G22KT P6SM SCT015 BKN025
     FM242000 25012KT P6SM BKN035=



    US Dept of Commerce
    National Oceanic and Atmospheric Administration
    National Weather Service
    1325 East West Highway
    Silver Spring, MD 20910
    Page Author: NWS Internet Services Team
Disclaimer
Information Quality
Credits
Glossary
Privacy Policy
Freedom of Information Act (FOIA)
About Us
Career Opportunities